sim
Sign-in with your pilot id or email,
or register
Callsign
Passwort

Schedule Details

Flight Number: OEC1024
Departure: Munich Airport (EDDM) at Time
Arrival: Tenerife South Airport (GCTS) at Time
Route: ALG2E ALG Y109 UMTEX Y100 TRA/F350 Z69 OLBEN UN869 ZAR UZ245 CJN UN10 HIJ UN857 CLANA/F370 UN857 TERTO TERTO7G

Weather Information
Getting current METAR information for EDDM 202020Z 00000KT CAVOK 11/10 Q1016 NOSIG
Getting current METAR information for GCTS 202000Z 09005KT 060V120 9999 FEW020 24/20 Q1017 NOSIG

Schedule Frequency

Route Map